sensor_id;sensor_type;location;lat;lon;timestamp;pressure;altitude;pressure_sealevel;temperature;humidity
18201;BME280;9226;47.858;9.594;2023-05-10T00:00:09;94662.28;;;14.59;87.64
18201;BME280;9226;47.858;9.594;2023-05-10T00:02:35;94666.13;;;14.64;87.17
18201;BME280;9226;47.858;9.594;2023-05-10T00:05:01;94662.13;;;14.60;87.01
18201;BME280;9226;47.858;9.594;2023-05-10T00:07:26;94659.59;;;14.51;87.90
18201;BME280;9226;47.858;9.594;2023-05-10T00:09:52;94672.78;;;14.52;87.26
18201;BME280;9226;47.858;9.594;2023-05-10T00:12:17;94672.47;;;14.55;87.54
18201;BME280;9226;47.858;9.594;2023-05-10T00:14:43;94669.78;;;14.55;87.62
18201;BME280;9226;47.858;9.594;2023-05-10T00:17:08;94668.13;;;14.46;88.05
18201;BME280;9226;47.858;9.594;2023-05-10T00:19:34;94672.81;;;14.44;88.55
18201;BME280;9226;47.858;9.594;2023-05-10T00:21:59;94674.78;;;14.42;88.56
18201;BME280;9226;47.858;9.594;2023-05-10T00:24:24;94668.94;;;14.46;88.47
18201;BME280;9226;47.858;9.594;2023-05-10T00:26:50;94676.28;;;14.44;88.45
18201;BME280;9226;47.858;9.594;2023-05-10T00:29:15;94664.13;;;14.50;88.17
18201;BME280;9226;47.858;9.594;2023-05-10T00:31:41;94667.44;;;14.52;88.48
18201;BME280;9226;47.858;9.594;2023-05-10T00:34:06;94670.97;;;14.36;88.93
18201;BME280;9226;47.858;9.594;2023-05-10T00:36:31;94663.78;;;14.45;88.47
18201;BME280;9226;47.858;9.594;2023-05-10T00:38:57;94664.44;;;14.39;88.94
18201;BME280;9226;47.858;9.594;2023-05-10T00:41:22;94661.78;;;14.39;88.36
18201;BME280;9226;47.858;9.594;2023-05-10T00:43:48;94664.94;;;14.51;87.64
18201;BME280;9226;47.858;9.594;2023-05-10T00:46:14;94659.47;;;14.44;88.81
18201;BME280;9226;47.858;9.594;2023-05-10T00:48:39;94671.78;;;14.37;88.51
18201;BME280;9226;47.858;9.594;2023-05-10T00:51:05;94665.13;;;14.41;88.58
18201;BME280;9226;47.858;9.594;2023-05-10T00:53:33;94669.78;;;14.47;88.34
18201;BME280;9226;47.858;9.594;2023-05-10T00:55:59;94677.97;;;14.45;89.01
18201;BME280;9226;47.858;9.594;2023-05-10T00:58:25;94675.31;;;14.45;88.47
18201;BME280;9226;47.858;9.594;2023-05-10T01:00:54;94672.47;;;14.47;87.50
18201;BME280;9226;47.858;9.594;2023-05-10T01:03:20;94680.28;;;14.32;88.86
18201;BME280;9226;47.858;9.594;2023-05-10T01:05:46;94673.78;;;14.43;87.63
18201;BME280;9226;47.858;9.594;2023-05-10T01:08:11;94680.44;;;14.39;87.56
18201;BME280;9226;47.858;9.594;2023-05-10T01:10:37;94681.78;;;14.43;87.72
18201;BME280;9226;47.858;9.594;2023-05-10T01:13:02;94679.13;;;14.43;87.64
18201;BME280;9226;47.858;9.594;2023-05-10T01:15:28;94683.81;;;14.49;87.19
18201;BME280;9226;47.858;9.594;2023-05-10T01:17:55;94685.44;;;14.42;87.52
18201;BME280;9226;47.858;9.594;2023-05-10T01:20:21;94683.97;;;14.39;87.63
18201;BME280;9226;47.858;9.594;2023-05-10T01:22:54;94688.47;;;14.30;87.61
18201;BME280;9226;47.858;9.594;2023-05-10T01:28:22;94692.63;;;14.17;88.18
18201;BME280;9226;47.858;9.594;2023-05-10T01:34:23;94700.81;;;14.32;86.71
18201;BME280;9226;47.858;9.594;2023-05-10T01:37:13;94700.00;;;14.31;86.84
18201;BME280;9226;47.858;9.594;2023-05-10T01:39:52;94698.31;;;14.38;85.91
18201;BME280;9226;47.858;9.594;2023-05-10T01:42:21;94700.66;;;14.33;86.20
18201;BME280;9226;47.858;9.594;2023-05-10T01:47:21;94715.16;;;14.39;86.27
18201;BME280;9226;47.858;9.594;2023-05-10T01:49:50;94723.47;;;14.36;86.08
18201;BME280;9226;47.858;9.594;2023-05-10T01:52:18;94719.66;;;14.38;85.96
18201;BME280;9226;47.858;9.594;2023-05-10T01:54:50;94717.47;;;14.42;85.48
18201;BME280;9226;47.858;9.594;2023-05-10T01:57:20;94717.16;;;14.37;85.87
18201;BME280;9226;47.858;9.594;2023-05-10T01:59:49;94719.97;;;14.35;85.79
18201;BME280;9226;47.858;9.594;2023-05-10T02:02:17;94722.50;;;14.37;85.05
18201;BME280;9226;47.858;9.594;2023-05-10T02:04:44;94731.84;;;14.41;84.85
18201;BME280;9226;47.858;9.594;2023-05-10T02:07:11;94737.34;;;14.39;85.57
18201;BME280;9226;47.858;9.594;2023-05-10T02:09:38;94738.50;;;14.37;85.20
18201;BME280;9226;47.858;9.594;2023-05-10T02:12:06;94743.50;;;14.40;84.85
18201;BME280;9226;47.858;9.594;2023-05-10T02:14:35;94735.00;;;14.36;85.22
18201;BME280;9226;47.858;9.594;2023-05-10T02:17:04;94743.00;;;14.36;85.10
18201;BME280;9226;47.858;9.594;2023-05-10T02:19:32;94739.47;;;14.36;85.58
18201;BME280;9226;47.858;9.594;2023-05-10T02:21:59;94744.81;;;14.36;85.71
18201;BME280;9226;47.858;9.594;2023-05-10T02:24:26;94747.50;;;14.36;85.84
18201;BME280;9226;47.858;9.594;2023-05-10T02:26:54;94748.19;;;14.38;85.26
18201;BME280;9226;47.858;9.594;2023-05-10T02:29:23;94746.19;;;14.40;85.63
18201;BME280;9226;47.858;9.594;2023-05-10T02:31:51;94749.50;;;14.34;85.42
18201;BME280;9226;47.858;9.594;2023-05-10T02:34:17;94750.31;;;14.34;85.75
18201;BME280;9226;47.858;9.594;2023-05-10T02:36:44;94754.69;;;14.43;84.70
18201;BME280;9226;47.858;9.594;2023-05-10T02:39:11;94757.50;;;14.42;85.12
18201;BME280;9226;47.858;9.594;2023-05-10T02:41:40;94755.69;;;14.42;85.17
18201;BME280;9226;47.858;9.594;2023-05-10T02:44:07;94758.84;;;14.38;85.10
18201;BME280;9226;47.858;9.594;2023-05-10T02:46:34;94761.19;;;14.41;84.50
18201;BME280;9226;47.858;9.594;2023-05-10T02:49:00;94755.53;;;14.44;84.35
18201;BME280;9226;47.858;9.594;2023-05-10T02:51:30;94757.16;;;14.28;85.18
18201;BME280;9226;47.858;9.594;2023-05-10T02:54:06;94755.88;;;14.41;84.14
18201;BME280;9226;47.858;9.594;2023-05-10T02:56:34;94755.00;;;14.40;84.35
18201;BME280;9226;47.858;9.594;2023-05-10T02:59:00;94758.84;;;14.38;84.88
18201;BME280;9226;47.858;9.594;2023-05-10T03:01:26;94754.66;;;14.35;85.09
18201;BME280;9226;47.858;9.594;2023-05-10T03:03:52;94750.31;;;14.26;85.64
18201;BME280;9226;47.858;9.594;2023-05-10T03:06:17;94751.19;;;14.26;85.60
18201;BME280;9226;47.858;9.594;2023-05-10T03:08:44;94749.97;;;14.21;85.62
18201;BME280;9226;47.858;9.594;2023-05-10T03:14:10;94753.47;;;14.13;86.05
18201;BME280;9226;47.858;9.594;2023-05-10T03:16:45;94756.28;;;14.11;86.10
18201;BME280;9226;47.858;9.594;2023-05-10T03:19:17;94759.13;;;14.18;85.00
18201;BME280;9226;47.858;9.594;2023-05-10T03:21:50;94755.81;;;14.16;84.91
18201;BME280;9226;47.858;9.594;2023-05-10T03:24:20;94761.13;;;14.08;84.50
18201;BME280;9226;47.858;9.594;2023-05-10T03:26:47;94758.63;;;14.06;84.84
18201;BME280;9226;47.858;9.594;2023-05-10T03:29:13;94761.97;;;14.08;85.35
18201;BME280;9226;47.858;9.594;2023-05-10T03:31:41;94758.81;;;14.13;84.58
18201;BME280;9226;47.858;9.594;2023-05-10T03:34:06;94763.13;;;14.06;85.31
18201;BME280;9226;47.858;9.594;2023-05-10T03:36:32;94766.47;;;14.08;85.48
18201;BME280;9226;47.858;9.594;2023-05-10T03:38:57;94767.47;;;14.15;85.12
18201;BME280;9226;47.858;9.594;2023-05-10T03:41:23;94759.13;;;14.10;84.66
18201;BME280;9226;47.858;9.594;2023-05-10T03:43:48;94767.47;;;14.15;84.36
18201;BME280;9226;47.858;9.594;2023-05-10T03:46:14;94774.97;;;14.20;84.17
18201;BME280;9226;47.858;9.594;2023-05-10T03:48:39;94770.81;;;14.17;84.42
18201;BME280;9226;47.858;9.594;2023-05-10T03:51:05;94770.31;;;14.14;84.69
18201;BME280;9226;47.858;9.594;2023-05-10T03:53:30;94779.81;;;14.16;84.03
18201;BME280;9226;47.858;9.594;2023-05-10T03:55:56;94778.66;;;14.19;83.92
18201;BME280;9226;47.858;9.594;2023-05-10T03:58:21;94779.66;;;14.18;83.62
18201;BME280;9226;47.858;9.594;2023-05-10T04:00:47;94782.16;;;14.11;83.59
18201;BME280;9226;47.858;9.594;2023-05-10T04:03:12;94780.16;;;14.13;83.38
18201;BME280;9226;47.858;9.594;2023-05-10T04:05:38;94778.81;;;14.09;83.47
18201;BME280;9226;47.858;9.594;2023-05-10T04:08:04;94782.16;;;14.11;83.65
18201;BME280;9226;47.858;9.594;2023-05-10T04:10:29;94788.44;;;14.02;84.43
18201;BME280;9226;47.858;9.594;2023-05-10T04:12:55;94789.81;;;14.06;84.23
18201;BME280;9226;47.858;9.594;2023-05-10T04:15:20;94776.81;;;14.11;83.91
18201;BME280;9226;47.858;9.594;2023-05-10T04:17:46;94783.78;;;14.12;84.30
18201;BME280;9226;47.858;9.594;2023-05-10T04:20:11;94789.81;;;14.14;84.09
18201;BME280;9226;47.858;9.594;2023-05-10T04:22:37;94793.78;;;14.02;84.19
18201;BME280;9226;47.858;9.594;2023-05-10T04:25:03;94782.16;;;14.11;83.64
18201;BME280;9226;47.858;9.594;2023-05-10T04:27:29;94783.47;;;14.15;83.91
18201;BME280;9226;47.858;9.594;2023-05-10T04:29:54;94785.97;;;14.17;84.13
18201;BME280;9226;47.858;9.594;2023-05-10T04:32:20;94795.19;;;14.22;83.78
18201;BME280;9226;47.858;9.594;2023-05-10T04:34:46;94795.84;;;14.24;83.64
18201;BME280;9226;47.858;9.594;2023-05-10T04:37:12;94792.50;;;14.22;84.09
18201;BME280;9226;47.858;9.594;2023-05-10T04:39:37;94793.88;;;14.26;84.01
18201;BME280;9226;47.858;9.594;2023-05-10T04:42:03;94794.19;;;14.32;83.76
18201;BME280;9226;47.858;9.594;2023-05-10T04:44:29;94794.69;;;14.35;83.96
18201;BME280;9226;47.858;9.594;2023-05-10T04:46:55;94787.19;;;14.39;83.68
18201;BME280;9226;47.858;9.594;2023-05-10T04:49:20;94794.53;;;14.45;83.90
18201;BME280;9226;47.858;9.594;2023-05-10T04:51:46;94797.38;;;14.43;83.63
18201;BME280;9226;47.858;9.594;2023-05-10T04:54:11;94802.38;;;14.46;83.30
18201;BME280;9226;47.858;9.594;2023-05-10T04:56:37;94798.91;;;14.54;82.80
18201;BME280;9226;47.858;9.594;2023-05-10T04:59:02;94797.91;;;14.47;83.49
18201;BME280;9226;47.858;9.594;2023-05-10T05:01:28;94801.25;;;14.57;82.79
18201;BME280;9226;47.858;9.594;2023-05-10T05:03:53;94808.25;;;14.58;82.44
18201;BME280;9226;47.858;9.594;2023-05-10T05:06:18;94806.94;;;14.62;82.61
18201;BME280;9226;47.858;9.594;2023-05-10T05:08:46;94811.63;;;14.69;82.52
18201;BME280;9226;47.858;9.594;2023-05-10T05:11:11;94808.63;;;14.80;82.19
18201;BME280;9226;47.858;9.594;2023-05-10T05:13:36;94803.63;;;14.77;81.72
18201;BME280;9226;47.858;9.594;2023-05-10T05:16:02;94810.78;;;14.84;81.75
18201;BME280;9226;47.858;9.594;2023-05-10T05:18:28;94812.31;;;14.87;81.61
18201;BME280;9226;47.858;9.594;2023-05-10T05:20:53;94816.66;;;14.96;80.44
18201;BME280;9226;47.858;9.594;2023-05-10T05:23:19;94811.31;;;14.96;80.79
18201;BME280;9226;47.858;9.594;2023-05-10T05:25:46;94813.13;;;14.96;80.67
18201;BME280;9226;47.858;9.594;2023-05-10T05:28:11;94814.50;;;14.92;80.87
18201;BME280;9226;47.858;9.594;2023-05-10T05:30:37;94821.34;;;14.94;81.18
18201;BME280;9226;47.858;9.594;2023-05-10T05:33:03;94817.63;;;15.04;80.99
18201;BME280;9226;47.858;9.594;2023-05-10T05:35:28;94816.47;;;15.14;80.32
18201;BME280;9226;47.858;9.594;2023-05-10T05:37:54;94825.50;;;15.13;81.18
18201;BME280;9226;47.858;9.594;2023-05-10T05:40:19;94822.66;;;15.23;80.20
18201;BME280;9226;47.858;9.594;2023-05-10T05:42:45;94825.47;;;15.30;79.66
18201;BME280;9226;47.858;9.594;2023-05-10T05:45:11;94822.66;;;15.31;79.28
18201;BME280;9226;47.858;9.594;2023-05-10T05:47:38;94826.31;;;15.30;79.70
18201;BME280;9226;47.858;9.594;2023-05-10T05:50:05;94825.97;;;15.33;79.18
18201;BME280;9226;47.858;9.594;2023-05-10T05:52:30;94827.47;;;15.36;79.02
18201;BME280;9226;47.858;9.594;2023-05-10T05:54:56;94835.81;;;15.41;79.32
18201;BME280;9226;47.858;9.594;2023-05-10T05:57:21;94838.50;;;15.41;79.31
18201;BME280;9226;47.858;9.594;2023-05-10T05:59:46;94845.69;;;15.41;79.46
18201;BME280;9226;47.858;9.594;2023-05-10T06:02:12;94840.03;;;15.35;78.20
18201;BME280;9226;47.858;9.594;2023-05-10T06:04:37;94847.00;;;15.36;78.43
18201;BME280;9226;47.858;9.594;2023-05-10T06:07:03;94850.19;;;15.40;78.99
18201;BME280;9226;47.858;9.594;2023-05-10T06:09:28;94856.03;;;15.52;77.86
18201;BME280;9226;47.858;9.594;2023-05-10T06:11:54;94847.16;;;15.43;77.16
18201;BME280;9226;47.858;9.594;2023-05-10T06:14:20;94853.72;;;15.41;77.40
18201;BME280;9226;47.858;9.594;2023-05-10T06:16:46;94853.56;;;15.34;77.70
18201;BME280;9226;47.858;9.594;2023-05-10T06:19:11;94852.22;;;15.30;77.94
18201;BME280;9226;47.858;9.594;2023-05-10T06:21:37;94860.38;;;15.36;77.71
18201;BME280;9226;47.858;9.594;2023-05-10T06:24:03;94864.56;;;15.31;78.04
18201;BME280;9226;47.858;9.594;2023-05-10T06:26:28;94857.53;;;15.38;77.42
18201;BME280;9226;47.858;9.594;2023-05-10T06:28:53;94867.09;;;15.32;78.11
18201;BME280;9226;47.858;9.594;2023-05-10T06:31:19;94870.06;;;15.37;78.19
18201;BME280;9226;47.858;9.594;2023-05-10T06:33:45;94868.41;;;15.36;77.50
18201;BME280;9226;47.858;9.594;2023-05-10T06:36:10;94871.56;;;15.32;77.67
18201;BME280;9226;47.858;9.594;2023-05-10T06:38:36;94871.09;;;15.28;77.50
18201;BME280;9226;47.858;9.594;2023-05-10T06:41:01;94872.44;;;15.32;77.81
18201;BME280;9226;47.858;9.594;2023-05-10T06:43:26;94868.06;;;15.40;77.54
18201;BME280;9226;47.858;9.594;2023-05-10T06:45:53;94875.09;;;15.41;77.66
18201;BME280;9226;47.858;9.594;2023-05-10T06:48:19;94877.25;;;15.29;78.63
18201;BME280;9226;47.858;9.594;2023-05-10T06:50:44;94875.78;;;15.26;78.15
18201;BME280;9226;47.858;9.594;2023-05-10T06:53:10;94878.41;;;15.43;77.57
18201;BME280;9226;47.858;9.594;2023-05-10T06:55:36;94881.59;;;15.54;77.87
18201;BME280;9226;47.858;9.594;2023-05-10T06:58:02;94885.41;;;15.60;77.79
18201;BME280;9226;47.858;9.594;2023-05-10T07:00:27;94881.25;;;15.58;77.21
18201;BME280;9226;47.858;9.594;2023-05-10T07:02:52;94881.41;;;15.64;76.50
18201;BME280;9226;47.858;9.594;2023-05-10T07:05:18;94868.34;;;15.69;76.58
18201;BME280;9226;47.858;9.594;2023-05-10T07:07:43;94874.19;;;15.73;75.89
18201;BME280;9226;47.858;9.594;2023-05-10T07:10:09;94881.41;;;15.64;76.12
18201;BME280;9226;47.858;9.594;2023-05-10T07:12:34;94889.09;;;15.67;75.93
18201;BME280;9226;47.858;9.594;2023-05-10T07:15:00;94888.06;;;15.68;75.81
18201;BME280;9226;47.858;9.594;2023-05-10T07:17:25;94886.41;;;15.67;76.00
18201;BME280;9226;47.858;9.594;2023-05-10T07:19:51;94891.75;;;15.76;75.10
18201;BME280;9226;47.858;9.594;2023-05-10T07:22:16;94882.75;;;15.77;75.34
18201;BME280;9226;47.858;9.594;2023-05-10T07:24:42;94884.72;;;15.83;75.48
18201;BME280;9226;47.858;9.594;2023-05-10T07:27:08;94885.59;;;15.83;75.44
18201;BME280;9226;47.858;9.594;2023-05-10T07:29:34;94887.22;;;15.93;75.03
18201;BME280;9226;47.858;9.594;2023-05-10T07:31:59;94881.75;;;15.78;74.59
18201;BME280;9226;47.858;9.594;2023-05-10T07:34:25;94889.09;;;15.84;74.59
18201;BME280;9226;47.858;9.594;2023-05-10T07:36:51;94894.44;;;15.84;74.60
18201;BME280;9226;47.858;9.594;2023-05-10T07:39:16;94891.06;;;15.90;74.35
18201;BME280;9226;47.858;9.594;2023-05-10T07:41:42;94899.06;;;15.98;74.38
18201;BME280;9226;47.858;9.594;2023-05-10T07:44:07;94889.41;;;15.97;73.94
18201;BME280;9226;47.858;9.594;2023-05-10T07:46:33;94897.44;;;15.97;74.57
18201;BME280;9226;47.858;9.594;2023-05-10T07:48:58;94896.91;;;15.94;73.91
18201;BME280;9226;47.858;9.594;2023-05-10T07:51:23;94896.75;;;15.95;73.56
18201;BME280;9226;47.858;9.594;2023-05-10T07:53:49;94901.09;;;15.96;73.62
18201;BME280;9226;47.858;9.594;2023-05-10T07:56:25;94901.41;;;16.01;73.14
18201;BME280;9226;47.858;9.594;2023-05-10T07:58:53;94901.25;;;16.03;72.90
18201;BME280;9226;47.858;9.594;2023-05-10T08:01:19;94905.44;;;15.89;72.75
18201;BME280;9226;47.858;9.594;2023-05-10T08:03:44;94901.56;;;16.08;72.67
18201;BME280;9226;47.858;9.594;2023-05-10T08:06:10;94905.28;;;15.99;73.08
18201;BME280;9226;47.858;9.594;2023-05-10T08:08:35;94908.41;;;16.10;73.11
18201;BME280;9226;47.858;9.594;2023-05-10T08:11:01;94910.19;;;16.26;72.89
18201;BME280;9226;47.858;9.594;2023-05-10T08:13:26;94908.16;;;16.37;72.49
18201;BME280;9226;47.858;9.594;2023-05-10T08:15:52;94903.88;;;16.59;72.46
18201;BME280;9226;47.858;9.594;2023-05-10T08:18:18;94909.53;;;16.64;71.54
18201;BME280;9226;47.858;9.594;2023-05-10T08:20:44;94913.84;;;16.73;71.00
18201;BME280;9226;47.858;9.594;2023-05-10T08:23:09;94911.81;;;16.75;70.94
18201;BME280;9226;47.858;9.594;2023-05-10T08:25:35;94916.53;;;16.65;70.60
18201;BME280;9226;47.858;9.594;2023-05-10T08:28:00;94912.44;;;16.86;70.76
18201;BME280;9226;47.858;9.594;2023-05-10T08:30:25;94909.56;;;16.95;70.12
18201;BME280;9226;47.858;9.594;2023-05-10T08:32:51;94909.69;;;17.02;69.75
18201;BME280;9226;47.858;9.594;2023-05-10T08:35:16;94909.84;;;17.00;68.85
18201;BME280;9226;47.858;9.594;2023-05-10T08:37:41;94911.53;;;17.25;68.86
18201;BME280;9226;47.858;9.594;2023-05-10T08:40:08;94908.72;;;17.41;68.83
18201;BME280;9226;47.858;9.594;2023-05-10T08:42:39;94920.69;;;17.53;68.35
18201;BME280;9226;47.858;9.594;2023-05-10T08:45:07;94904.72;;;17.60;67.34
18201;BME280;9226;47.858;9.594;2023-05-10T08:47:35;94907.41;;;17.75;66.98
18201;BME280;9226;47.858;9.594;2023-05-10T08:50:02;94917.44;;;17.58;66.80
18201;BME280;9226;47.858;9.594;2023-05-10T08:52:28;94911.88;;;17.68;67.25
18201;BME280;9226;47.858;9.594;2023-05-10T08:54:55;94917.06;;;17.84;66.69
18201;BME280;9226;47.858;9.594;2023-05-10T08:57:20;94912.41;;;17.78;65.36
18201;BME280;9226;47.858;9.594;2023-05-10T08:59:46;94908.38;;;17.82;65.20
18201;BME280;9226;47.858;9.594;2023-05-10T09:02:12;94908.97;;;17.69;65.69
18201;BME280;9226;47.858;9.594;2023-05-10T09:04:38;94906.16;;;17.25;65.00
18201;BME280;9226;47.858;9.594;2023-05-10T09:07:04;94914.03;;;17.49;65.41
18201;BME280;9226;47.858;9.594;2023-05-10T09:09:30;94914.47;;;17.76;66.31
18201;BME280;9226;47.858;9.594;2023-05-10T09:11:57;94904.66;;;17.83;64.94
18201;BME280;9226;47.858;9.594;2023-05-10T09:14:24;94912.78;;;17.75;63.67
18201;BME280;9226;47.858;9.594;2023-05-10T09:16:50;94906.06;;;17.79;63.69
18201;BME280;9226;47.858;9.594;2023-05-10T09:19:15;94914.19;;;17.86;64.00
18201;BME280;9226;47.858;9.594;2023-05-10T09:21:41;94909.97;;;17.92;63.39
18201;BME280;9226;47.858;9.594;2023-05-10T09:24:07;94907.81;;;17.87;61.55
18201;BME280;9226;47.858;9.594;2023-05-10T09:26:34;94913.50;;;17.92;63.58
18201;BME280;9226;47.858;9.594;2023-05-10T09:29:01;94910.50;;;17.87;62.36
18201;BME280;9226;47.858;9.594;2023-05-10T09:31:48;94908.31;;;17.67;62.17
18201;BME280;9226;47.858;9.594;2023-05-10T09:34:17;94914.19;;;17.86;62.33
18201;BME280;9226;47.858;9.594;2023-05-10T09:36:59;94922.19;;;17.71;62.12
18201;BME280;9226;47.858;9.594;2023-05-10T09:39:36;94916.09;;;17.77;63.45
18201;BME280;9226;47.858;9.594;2023-05-10T09:42:08;94920.75;;;17.83;62.31
18201;BME280;9226;47.858;9.594;2023-05-10T09:44:34;94917.41;;;18.04;63.11
18201;BME280;9226;47.858;9.594;2023-05-10T09:47:01;94916.22;;;18.22;61.50
18201;BME280;9226;47.858;9.594;2023-05-10T09:49:26;94921.03;;;18.26;60.82
18201;BME280;9226;47.858;9.594;2023-05-10T09:52:06;94920.56;;;18.38;61.52
18201;BME280;9226;47.858;9.594;2023-05-10T09:54:32;94915.53;;;18.50;60.98
18201;BME280;9226;47.858;9.594;2023-05-10T09:56:58;94926.34;;;18.71;60.73
18201;BME280;9226;47.858;9.594;2023-05-10T09:59:27;94926.53;;;18.70;60.19
18201;BME280;9226;47.858;9.594;2023-05-10T10:01:56;94925.03;;;18.82;60.32
18201;BME280;9226;47.858;9.594;2023-05-10T10:04:22;94919.91;;;19.02;59.99
18201;BME280;9226;47.858;9.594;2023-05-10T10:07:01;94928.28;;;18.77;57.95
18201;BME280;9226;47.858;9.594;2023-05-10T10:09:28;94924.88;;;18.69;58.47
18201;BME280;9226;47.858;9.594;2023-05-10T10:11:53;94929.03;;;18.71;58.60
18201;BME280;9226;47.858;9.594;2023-05-10T10:14:20;94928.31;;;18.62;57.91
18201;BME280;9226;47.858;9.594;2023-05-10T10:16:46;94933.13;;;18.67;58.09
18201;BME280;9226;47.858;9.594;2023-05-10T10:19:12;94932.28;;;18.67;57.53
18201;BME280;9226;47.858;9.594;2023-05-10T10:21:38;94934.88;;;18.75;57.14
18201;BME280;9226;47.858;9.594;2023-05-10T10:24:03;94928.28;;;18.77;57.53
18201;BME280;9226;47.858;9.594;2023-05-10T10:26:33;94933.13;;;18.67;57.10
18201;BME280;9226;47.858;9.594;2023-05-10T10:29:36;94930.81;;;18.49;57.17
18201;BME280;9226;47.858;9.594;2023-05-10T10:34:33;94941.09;;;18.60;58.41
18201;BME280;9226;47.858;9.594;2023-05-10T10:37:04;94933.59;;;18.71;58.09
18201;BME280;9226;47.858;9.594;2023-05-10T10:39:30;94939.88;;;18.78;58.48
18201;BME280;9226;47.858;9.594;2023-05-10T10:41:57;94949.72;;;18.71;58.73
18201;BME280;9226;47.858;9.594;2023-05-10T10:47:10;94958.13;;;18.53;54.40
18201;BME280;9226;47.858;9.594;2023-05-10T10:55:01;94955.22;;;17.95;53.77
18201;BME280;9226;47.858;9.594;2023-05-10T10:57:28;94960.56;;;17.57;55.43
18201;BME280;9226;47.858;9.594;2023-05-10T11:00:20;94959.09;;;16.99;56.03
18201;BME280;9226;47.858;9.594;2023-05-10T11:02:53;94959.84;;;17.16;57.05
18201;BME280;9226;47.858;9.594;2023-05-10T11:05:48;94957.53;;;16.74;58.75
18201;BME280;9226;47.858;9.594;2023-05-10T11:15:55;94965.66;;;16.49;62.07
18201;BME280;9226;47.858;9.594;2023-05-10T11:18:27;94969.56;;;16.38;62.53
18201;BME280;9226;47.858;9.594;2023-05-10T11:23:20;94973.94;;;16.23;64.11
18201;BME280;9226;47.858;9.594;2023-05-10T11:25:47;94978.44;;;16.22;63.91
18201;BME280;9226;47.858;9.594;2023-05-10T11:28:13;94978.31;;;16.16;64.42
18201;BME280;9226;47.858;9.594;2023-05-10T11:30:40;94977.69;;;15.81;66.68
18201;BME280;9226;47.858;9.594;2023-05-10T11:33:07;94976.69;;;15.73;66.01
18201;BME280;9226;47.858;9.594;2023-05-10T11:35:39;94980.00;;;15.59;67.03
18201;BME280;9226;47.858;9.594;2023-05-10T11:38:09;94982.50;;;15.61;66.44
18201;BME280;9226;47.858;9.594;2023-05-10T11:40:36;94978.50;;;15.73;65.86
18201;BME280;9226;47.858;9.594;2023-05-10T11:43:02;94992.53;;;15.67;66.67
18201;BME280;9226;47.858;9.594;2023-05-10T11:45:28;94989.19;;;15.65;66.70
18201;BME280;9226;47.858;9.594;2023-05-10T11:47:57;94987.03;;;15.52;67.61
18201;BME280;9226;47.858;9.594;2023-05-10T11:50:22;94989.03;;;15.50;67.85
18201;BME280;9226;47.858;9.594;2023-05-10T11:52:55;94991.72;;;15.50;68.13
18201;BME280;9226;47.858;9.594;2023-05-10T11:55:20;94991.34;;;15.45;68.98
18201;BME280;9226;47.858;9.594;2023-05-10T11:57:46;94984.53;;;15.42;69.17
18201;BME280;9226;47.858;9.594;2023-05-10T12:00:15;94978.47;;;15.40;69.72
18201;BME280;9226;47.858;9.594;2023-05-10T12:02:41;94979.66;;;15.46;68.81
18201;BME280;9226;47.858;9.594;2023-05-10T12:05:07;94986.16;;;15.43;70.21
18201;BME280;9226;47.858;9.594;2023-05-10T12:07:32;94986.88;;;15.45;70.01
18201;BME280;9226;47.858;9.594;2023-05-10T12:10:07;94979.00;;;15.44;70.81
18201;BME280;9226;47.858;9.594;2023-05-10T12:12:40;94976.34;;;15.44;70.23
18201;BME280;9226;47.858;9.594;2023-05-10T12:15:17;94974.47;;;15.52;69.67
18201;BME280;9226;47.858;9.594;2023-05-10T12:17:45;94974.84;;;15.66;69.09
18201;BME280;9226;47.858;9.594;2023-05-10T12:20:17;94971.31;;;15.73;69.54
18201;BME280;9226;47.858;9.594;2023-05-10T12:25:12;94971.84;;;15.85;69.72
18201;BME280;9226;47.858;9.594;2023-05-10T12:27:37;94971.66;;;15.95;69.41
18201;BME280;9226;47.858;9.594;2023-05-10T12:30:03;94978.31;;;16.16;68.40
18201;BME280;9226;47.858;9.594;2023-05-10T12:32:41;94976.94;;;16.28;67.94
18201;BME280;9226;47.858;9.594;2023-05-10T12:35:07;94977.44;;;16.23;68.05
18201;BME280;9226;47.858;9.594;2023-05-10T12:37:33;94986.38;;;15.58;69.70
18201;BME280;9226;47.858;9.594;2023-05-10T12:40:01;94980.81;;;15.43;70.76
18201;BME280;9226;47.858;9.594;2023-05-10T12:42:28;94976.53;;;15.83;69.63
18201;BME280;9226;47.858;9.594;2023-05-10T12:44:57;94983.72;;;15.91;70.46
18201;BME280;9226;47.858;9.594;2023-05-10T12:47:22;94979.34;;;15.90;69.23
18201;BME280;9226;47.858;9.594;2023-05-10T12:49:48;94974.66;;;15.92;69.93
18201;BME280;9226;47.858;9.594;2023-05-10T12:52:13;94983.50;;;16.09;68.44
18201;BME280;9226;47.858;9.594;2023-05-10T12:54:38;94979.69;;;15.95;68.82
18201;BME280;9226;47.858;9.594;2023-05-10T12:57:04;94979.34;;;15.98;68.03
18201;BME280;9226;47.858;9.594;2023-05-10T12:59:29;94983.31;;;16.19;68.38
18201;BME280;9226;47.858;9.594;2023-05-10T13:01:57;94973.59;;;16.34;67.72
18201;BME280;9226;47.858;9.594;2023-05-10T13:04:22;94976.09;;;16.36;67.14
18201;BME280;9226;47.858;9.594;2023-05-10T13:06:47;94974.19;;;16.53;67.26
18201;BME280;9226;47.858;9.594;2023-05-10T13:09:13;94974.56;;;16.41;67.07
18201;BME280;9226;47.858;9.594;2023-05-10T13:11:38;94977.31;;;16.17;68.03
18201;BME280;9226;47.858;9.594;2023-05-10T13:14:04;94972.44;;;16.20;66.59
18201;BME280;9226;47.858;9.594;2023-05-10T13:16:29;94968.00;;;15.80;67.69
18201;BME280;9226;47.858;9.594;2023-05-10T13:18:55;94972.13;;;16.15;66.85
18201;BME280;9226;47.858;9.594;2023-05-10T13:21:20;94969.31;;;15.84;68.57
18201;BME280;9226;47.858;9.594;2023-05-10T13:23:45;94970.94;;;16.09;67.51
18201;BME280;9226;47.858;9.594;2023-05-10T13:26:11;94964.81;;;15.84;68.35
18201;BME280;9226;47.858;9.594;2023-05-10T13:28:37;94961.47;;;15.90;68.16
18201;BME280;9226;47.858;9.594;2023-05-10T13:31:04;94963.97;;;15.92;68.00
18201;BME280;9226;47.858;9.594;2023-05-10T13:33:30;94962.75;;;16.11;68.60
18201;BME280;9226;47.858;9.594;2023-05-10T13:35:55;94965.94;;;16.15;68.14
18201;BME280;9226;47.858;9.594;2023-05-10T13:38:20;94954.38;;;16.14;68.62
18201;BME280;9226;47.858;9.594;2023-05-10T13:40:46;94962.59;;;16.04;67.26
18201;BME280;9226;47.858;9.594;2023-05-10T13:43:11;94966.91;;;16.22;68.02